sensor_id;sensor_type;location;lat;lon;timestamp;P1;durP1;ratioP1;P2;durP2;ratioP2
73747;SDS011;62056;52.130;5.428;2024-01-11T00:01:28;7.75;;;3.05;;
73747;SDS011;62056;52.130;5.428;2024-01-11T00:03:55;7.65;;;3.97;;
73747;SDS011;62056;52.130;5.428;2024-01-11T00:06:22;10.02;;;4.65;;
73747;SDS011;62056;52.130;5.428;2024-01-11T00:08:49;10.95;;;4.50;;
73747;SDS011;62056;52.130;5.428;2024-01-11T00:11:15;13.23;;;4.57;;
73747;SDS011;62056;52.130;5.428;2024-01-11T00:13:44;12.27;;;4.82;;
73747;SDS011;62056;52.130;5.428;2024-01-11T00:16:11;12.98;;;4.63;;
73747;SDS011;62056;52.130;5.428;2024-01-11T00:18:37;6.32;;;3.92;;
73747;SDS011;62056;52.130;5.428;2024-01-11T00:21:04;10.73;;;4.45;;
73747;SDS011;62056;52.130;5.428;2024-01-11T00:23:31;11.97;;;4.80;;
73747;SDS011;62056;52.130;5.428;2024-01-11T00:25:58;6.07;;;2.85;;
73747;SDS011;62056;52.130;5.428;2024-01-11T00:28:26;9.48;;;4.68;;
73747;SDS011;62056;52.130;5.428;2024-01-11T00:30:52;8.88;;;4.68;;
73747;SDS011;62056;52.130;5.428;2024-01-11T00:33:19;7.18;;;4.18;;
73747;SDS011;62056;52.130;5.428;2024-01-11T00:35:46;11.53;;;4.93;;
73747;SDS011;62056;52.130;5.428;2024-01-11T00:38:12;10.00;;;3.70;;
73747;SDS011;62056;52.130;5.428;2024-01-11T00:40:39;11.52;;;4.40;;
73747;SDS011;62056;52.130;5.428;2024-01-11T00:43:06;9.07;;;3.97;;
73747;SDS011;62056;52.130;5.428;2024-01-11T00:45:33;11.60;;;4.72;;
73747;SDS011;62056;52.130;5.428;2024-01-11T00:47:59;7.23;;;4.83;;
73747;SDS011;62056;52.130;5.428;2024-01-11T00:50:26;9.80;;;4.50;;
73747;SDS011;62056;52.130;5.428;2024-01-11T00:52:53;10.23;;;6.25;;
73747;SDS011;62056;52.130;5.428;2024-01-11T00:55:19;11.95;;;3.78;;
73747;SDS011;62056;52.130;5.428;2024-01-11T00:57:46;10.27;;;3.67;;
73747;SDS011;62056;52.130;5.428;2024-01-11T01:00:13;4.90;;;3.60;;
73747;SDS011;62056;52.130;5.428;2024-01-11T01:02:43;6.25;;;3.58;;
73747;SDS011;62056;52.130;5.428;2024-01-11T01:05:09;7.72;;;4.25;;
73747;SDS011;62056;52.130;5.428;2024-01-11T01:07:36;10.93;;;4.65;;
73747;SDS011;62056;52.130;5.428;2024-01-11T01:10:03;9.73;;;3.83;;
73747;SDS011;62056;52.130;5.428;2024-01-11T01:12:30;10.53;;;5.17;;
73747;SDS011;62056;52.130;5.428;2024-01-11T01:14:56;12.23;;;4.88;;
73747;SDS011;62056;52.130;5.428;2024-01-11T01:17:23;11.95;;;3.88;;
73747;SDS011;62056;52.130;5.428;2024-01-11T01:19:50;9.95;;;4.88;;
73747;SDS011;62056;52.130;5.428;2024-01-11T01:22:16;7.70;;;3.95;;
73747;SDS011;62056;52.130;5.428;2024-01-11T01:24:43;11.63;;;4.83;;
73747;SDS011;62056;52.130;5.428;2024-01-11T01:27:10;10.02;;;3.63;;
73747;SDS011;62056;52.130;5.428;2024-01-11T01:29:37;6.05;;;3.53;;
73747;SDS011;62056;52.130;5.428;2024-01-11T01:32:04;7.97;;;2.88;;
73747;SDS011;62056;52.130;5.428;2024-01-11T01:34:31;12.90;;;4.30;;
73747;SDS011;62056;52.130;5.428;2024-01-11T01:36:58;5.57;;;3.53;;
73747;SDS011;62056;52.130;5.428;2024-01-11T01:39:24;8.52;;;4.25;;
73747;SDS011;62056;52.130;5.428;2024-01-11T01:41:51;6.65;;;3.80;;
73747;SDS011;62056;52.130;5.428;2024-01-11T01:44:18;7.85;;;3.33;;
73747;SDS011;62056;52.130;5.428;2024-01-11T01:46:44;9.45;;;4.65;;
73747;SDS011;62056;52.130;5.428;2024-01-11T01:49:11;12.90;;;3.93;;
73747;SDS011;62056;52.130;5.428;2024-01-11T01:51:39;5.70;;;4.10;;
73747;SDS011;62056;52.130;5.428;2024-01-11T01:54:05;5.90;;;3.80;;
73747;SDS011;62056;52.130;5.428;2024-01-11T01:56:32;10.52;;;4.05;;
73747;SDS011;62056;52.130;5.428;2024-01-11T01:58:59;7.70;;;3.88;;
73747;SDS011;62056;52.130;5.428;2024-01-11T02:01:27;8.33;;;4.30;;
73747;SDS011;62056;52.130;5.428;2024-01-11T02:03:54;8.73;;;4.25;;
73747;SDS011;62056;52.130;5.428;2024-01-11T02:06:22;7.60;;;4.10;;
73747;SDS011;62056;52.130;5.428;2024-01-11T02:08:52;8.55;;;3.08;;
73747;SDS011;62056;52.130;5.428;2024-01-11T02:11:22;5.45;;;3.78;;
73747;SDS011;62056;52.130;5.428;2024-01-11T02:13:50;12.13;;;3.80;;
73747;SDS011;62056;52.130;5.428;2024-01-11T02:16:17;6.63;;;3.50;;
73747;SDS011;62056;52.130;5.428;2024-01-11T02:18:43;7.82;;;4.32;;
73747;SDS011;62056;52.130;5.428;2024-01-11T02:21:11;7.68;;;4.35;;
73747;SDS011;62056;52.130;5.428;2024-01-11T02:23:44;7.40;;;4.28;;
73747;SDS011;62056;52.130;5.428;2024-01-11T02:26:15;8.57;;;4.00;;
73747;SDS011;62056;52.130;5.428;2024-01-11T02:28:43;8.40;;;3.83;;
73747;SDS011;62056;52.130;5.428;2024-01-11T02:31:13;9.02;;;4.28;;
73747;SDS011;62056;52.130;5.428;2024-01-11T02:33:40;8.85;;;4.80;;
73747;SDS011;62056;52.130;5.428;2024-01-11T02:36:08;8.35;;;4.18;;
73747;SDS011;62056;52.130;5.428;2024-01-11T02:38:35;9.87;;;5.07;;
73747;SDS011;62056;52.130;5.428;2024-01-11T02:41:03;10.88;;;5.18;;
73747;SDS011;62056;52.130;5.428;2024-01-11T02:43:31;6.78;;;4.32;;
73747;SDS011;62056;52.130;5.428;2024-01-11T02:45:58;10.95;;;5.03;;
73747;SDS011;62056;52.130;5.428;2024-01-11T02:48:28;10.90;;;5.43;;
73747;SDS011;62056;52.130;5.428;2024-01-11T02:50:56;8.73;;;4.40;;
73747;SDS011;62056;52.130;5.428;2024-01-11T02:53:23;9.25;;;4.95;;
73747;SDS011;62056;52.130;5.428;2024-01-11T02:55:50;12.88;;;5.32;;
73747;SDS011;62056;52.130;5.428;2024-01-11T02:58:17;9.57;;;5.38;;
73747;SDS011;62056;52.130;5.428;2024-01-11T03:00:44;6.63;;;3.58;;
73747;SDS011;62056;52.130;5.428;2024-01-11T03:03:10;13.20;;;3.90;;
73747;SDS011;62056;52.130;5.428;2024-01-11T03:05:37;13.55;;;5.20;;
73747;SDS011;62056;52.130;5.428;2024-01-11T03:08:04;8.45;;;4.75;;
73747;SDS011;62056;52.130;5.428;2024-01-11T03:10:31;11.05;;;5.88;;
73747;SDS011;62056;52.130;5.428;2024-01-11T03:12:57;11.95;;;5.15;;
73747;SDS011;62056;52.130;5.428;2024-01-11T03:15:24;10.03;;;6.07;;
73747;SDS011;62056;52.130;5.428;2024-01-11T03:17:51;8.10;;;4.40;;
73747;SDS011;62056;52.130;5.428;2024-01-11T03:20:18;11.55;;;5.55;;
73747;SDS011;62056;52.130;5.428;2024-01-11T03:22:48;20.83;;;4.78;;
73747;SDS011;62056;52.130;5.428;2024-01-11T03:25:14;15.15;;;6.38;;
73747;SDS011;62056;52.130;5.428;2024-01-11T03:27:42;8.97;;;5.50;;
73747;SDS011;62056;52.130;5.428;2024-01-11T03:30:08;5.40;;;4.85;;
73747;SDS011;62056;52.130;5.428;2024-01-11T03:32:35;6.13;;;3.47;;
73747;SDS011;62056;52.130;5.428;2024-01-11T03:35:02;12.48;;;6.22;;
73747;SDS011;62056;52.130;5.428;2024-01-11T03:37:29;10.70;;;5.13;;
73747;SDS011;62056;52.130;5.428;2024-01-11T03:39:56;8.27;;;4.70;;
73747;SDS011;62056;52.130;5.428;2024-01-11T03:42:22;8.57;;;5.57;;
73747;SDS011;62056;52.130;5.428;2024-01-11T03:44:50;14.20;;;6.85;;
73747;SDS011;62056;52.130;5.428;2024-01-11T03:47:17;13.18;;;6.47;;
73747;SDS011;62056;52.130;5.428;2024-01-11T03:49:43;13.70;;;8.30;;
73747;SDS011;62056;52.130;5.428;2024-01-11T03:52:10;11.53;;;6.03;;
73747;SDS011;62056;52.130;5.428;2024-01-11T03:54:38;13.20;;;6.72;;
73747;SDS011;62056;52.130;5.428;2024-01-11T03:57:05;12.15;;;6.53;;
73747;SDS011;62056;52.130;5.428;2024-01-11T03:59:33;19.17;;;7.60;;
73747;SDS011;62056;52.130;5.428;2024-01-11T04:01:59;14.05;;;7.63;;
73747;SDS011;62056;52.130;5.428;2024-01-11T04:04:26;23.70;;;7.40;;
73747;SDS011;62056;52.130;5.428;2024-01-11T04:06:54;10.48;;;6.43;;
73747;SDS011;62056;52.130;5.428;2024-01-11T04:09:21;8.40;;;6.05;;
73747;SDS011;62056;52.130;5.428;2024-01-11T04:11:48;12.00;;;5.82;;
73747;SDS011;62056;52.130;5.428;2024-01-11T04:14:15;9.05;;;5.00;;
73747;SDS011;62056;52.130;5.428;2024-01-11T04:16:42;7.90;;;5.37;;
73747;SDS011;62056;52.130;5.428;2024-01-11T04:19:09;18.45;;;9.30;;
73747;SDS011;62056;52.130;5.428;2024-01-11T04:21:36;13.85;;;7.65;;
73747;SDS011;62056;52.130;5.428;2024-01-11T04:24:06;21.48;;;8.57;;
73747;SDS011;62056;52.130;5.428;2024-01-11T04:26:34;11.32;;;7.25;;
73747;SDS011;62056;52.130;5.428;2024-01-11T04:29:02;12.93;;;7.50;;
73747;SDS011;62056;52.130;5.428;2024-01-11T04:31:32;13.07;;;7.25;;
73747;SDS011;62056;52.130;5.428;2024-01-11T04:34:01;16.50;;;9.23;;
73747;SDS011;62056;52.130;5.428;2024-01-11T04:36:27;18.92;;;9.65;;
73747;SDS011;62056;52.130;5.428;2024-01-11T04:38:54;15.48;;;9.02;;
73747;SDS011;62056;52.130;5.428;2024-01-11T04:41:21;17.33;;;9.10;;
73747;SDS011;62056;52.130;5.428;2024-01-11T04:43:49;15.55;;;8.82;;
73747;SDS011;62056;52.130;5.428;2024-01-11T04:46:17;18.35;;;8.82;;
73747;SDS011;62056;52.130;5.428;2024-01-11T04:48:45;21.83;;;10.10;;
73747;SDS011;62056;52.130;5.428;2024-01-11T04:51:13;9.38;;;5.43;;
73747;SDS011;62056;52.130;5.428;2024-01-11T04:53:42;22.33;;;9.70;;
73747;SDS011;62056;52.130;5.428;2024-01-11T04:56:11;17.42;;;8.40;;
73747;SDS011;62056;52.130;5.428;2024-01-11T04:58:41;7.78;;;5.82;;
73747;SDS011;62056;52.130;5.428;2024-01-11T05:01:12;7.70;;;4.32;;
73747;SDS011;62056;52.130;5.428;2024-01-11T05:03:41;14.93;;;7.13;;
73747;SDS011;62056;52.130;5.428;2024-01-11T05:06:14;18.70;;;9.20;;
73747;SDS011;62056;52.130;5.428;2024-01-11T05:08:43;19.60;;;9.77;;
73747;SDS011;62056;52.130;5.428;2024-01-11T05:11:17;15.50;;;9.32;;
73747;SDS011;62056;52.130;5.428;2024-01-11T05:13:45;16.95;;;9.30;;
73747;SDS011;62056;52.130;5.428;2024-01-11T05:16:22;17.83;;;8.15;;
73747;SDS011;62056;52.130;5.428;2024-01-11T05:18:50;15.10;;;8.80;;
73747;SDS011;62056;52.130;5.428;2024-01-11T05:21:18;17.23;;;7.90;;
73747;SDS011;62056;52.130;5.428;2024-01-11T05:23:45;21.35;;;9.25;;
73747;SDS011;62056;52.130;5.428;2024-01-11T05:26:13;24.52;;;10.85;;
73747;SDS011;62056;52.130;5.428;2024-01-11T05:28:41;18.05;;;9.32;;
73747;SDS011;62056;52.130;5.428;2024-01-11T05:31:12;18.03;;;8.97;;
73747;SDS011;62056;52.130;5.428;2024-01-11T05:33:41;22.40;;;9.48;;
73747;SDS011;62056;52.130;5.428;2024-01-11T05:36:08;21.23;;;9.65;;
73747;SDS011;62056;52.130;5.428;2024-01-11T05:38:36;22.55;;;10.02;;
73747;SDS011;62056;52.130;5.428;2024-01-11T05:41:04;17.08;;;8.57;;
73747;SDS011;62056;52.130;5.428;2024-01-11T05:43:31;14.00;;;7.13;;
73747;SDS011;62056;52.130;5.428;2024-01-11T05:45:57;22.23;;;10.50;;
73747;SDS011;62056;52.130;5.428;2024-01-11T05:48:24;26.08;;;11.23;;
73747;SDS011;62056;52.130;5.428;2024-01-11T05:50:51;28.80;;;11.00;;
73747;SDS011;62056;52.130;5.428;2024-01-11T05:53:17;26.95;;;10.52;;
73747;SDS011;62056;52.130;5.428;2024-01-11T05:55:47;24.70;;;9.97;;
73747;SDS011;62056;52.130;5.428;2024-01-11T05:58:15;17.33;;;7.82;;
73747;SDS011;62056;52.130;5.428;2024-01-11T06:00:42;26.55;;;10.65;;
73747;SDS011;62056;52.130;5.428;2024-01-11T06:03:11;12.82;;;7.47;;
73747;SDS011;62056;52.130;5.428;2024-01-11T06:05:38;24.15;;;11.73;;
73747;SDS011;62056;52.130;5.428;2024-01-11T06:08:06;22.03;;;11.60;;
73747;SDS011;62056;52.130;5.428;2024-01-11T06:10:33;20.33;;;10.95;;
73747;SDS011;62056;52.130;5.428;2024-01-11T06:13:00;21.40;;;10.25;;
73747;SDS011;62056;52.130;5.428;2024-01-11T06:15:26;19.60;;;10.68;;
73747;SDS011;62056;52.130;5.428;2024-01-11T06:17:53;27.33;;;10.68;;
73747;SDS011;62056;52.130;5.428;2024-01-11T06:20:20;22.53;;;9.53;;
73747;SDS011;62056;52.130;5.428;2024-01-11T06:22:47;12.30;;;6.93;;
73747;SDS011;62056;52.130;5.428;2024-01-11T06:25:13;17.08;;;7.28;;
73747;SDS011;62056;52.130;5.428;2024-01-11T06:27:44;23.17;;;10.88;;
73747;SDS011;62056;52.130;5.428;2024-01-11T06:30:12;11.43;;;7.03;;
73747;SDS011;62056;52.130;5.428;2024-01-11T06:32:39;21.40;;;10.43;;
73747;SDS011;62056;52.130;5.428;2024-01-11T06:35:06;20.15;;;10.25;;
73747;SDS011;62056;52.130;5.428;2024-01-11T06:37:33;22.52;;;9.23;;
73747;SDS011;62056;52.130;5.428;2024-01-11T06:40:00;18.25;;;9.38;;
73747;SDS011;62056;52.130;5.428;2024-01-11T06:42:27;29.00;;;12.32;;
73747;SDS011;62056;52.130;5.428;2024-01-11T06:44:53;25.17;;;11.80;;
73747;SDS011;62056;52.130;5.428;2024-01-11T06:47:20;23.92;;;11.15;;
73747;SDS011;62056;52.130;5.428;2024-01-11T06:49:47;16.55;;;8.88;;
73747;SDS011;62056;52.130;5.428;2024-01-11T06:52:13;13.02;;;7.05;;
73747;SDS011;62056;52.130;5.428;2024-01-11T06:54:40;13.77;;;8.48;;
73747;SDS011;62056;52.130;5.428;2024-01-11T06:57:06;20.57;;;10.97;;
73747;SDS011;62056;52.130;5.428;2024-01-11T06:59:33;19.90;;;9.65;;
73747;SDS011;62056;52.130;5.428;2024-01-11T07:02:00;18.30;;;9.50;;
73747;SDS011;62056;52.130;5.428;2024-01-11T07:04:27;20.35;;;8.65;;
73747;SDS011;62056;52.130;5.428;2024-01-11T07:06:57;17.08;;;8.57;;
73747;SDS011;62056;52.130;5.428;2024-01-11T07:09:23;21.30;;;11.70;;
73747;SDS011;62056;52.130;5.428;2024-01-11T07:11:51;14.50;;;7.03;;
73747;SDS011;62056;52.130;5.428;2024-01-11T07:14:18;24.90;;;11.88;;
73747;SDS011;62056;52.130;5.428;2024-01-11T07:16:45;18.50;;;10.10;;
73747;SDS011;62056;52.130;5.428;2024-01-11T07:19:12;24.75;;;11.70;;
73747;SDS011;62056;52.130;5.428;2024-01-11T07:21:39;22.80;;;11.30;;
73747;SDS011;62056;52.130;5.428;2024-01-11T07:24:06;21.83;;;10.45;;
73747;SDS011;62056;52.130;5.428;2024-01-11T07:26:32;22.35;;;10.02;;
73747;SDS011;62056;52.130;5.428;2024-01-11T07:28:59;23.90;;;12.27;;
73747;SDS011;62056;52.130;5.428;2024-01-11T07:31:26;24.10;;;11.18;;
73747;SDS011;62056;52.130;5.428;2024-01-11T07:33:53;24.30;;;11.80;;
73747;SDS011;62056;52.130;5.428;2024-01-11T07:36:19;29.70;;;11.57;;
73747;SDS011;62056;52.130;5.428;2024-01-11T07:38:46;22.48;;;10.60;;
73747;SDS011;62056;52.130;5.428;2024-01-11T07:41:13;12.95;;;5.65;;
73747;SDS011;62056;52.130;5.428;2024-01-11T07:43:40;18.08;;;8.45;;
73747;SDS011;62056;52.130;5.428;2024-01-11T07:46:19;26.50;;;10.93;;
73747;SDS011;62056;52.130;5.428;2024-01-11T07:48:58;20.15;;;9.75;;
73747;SDS011;62056;52.130;5.428;2024-01-11T07:51:25;22.77;;;10.63;;
73747;SDS011;62056;52.130;5.428;2024-01-11T07:53:53;16.90;;;8.98;;
73747;SDS011;62056;52.130;5.428;2024-01-11T07:56:20;19.38;;;9.63;;
73747;SDS011;62056;52.130;5.428;2024-01-11T07:58:47;26.17;;;11.93;;
73747;SDS011;62056;52.130;5.428;2024-01-11T08:01:15;27.15;;;11.90;;
73747;SDS011;62056;52.130;5.428;2024-01-11T08:03:43;15.38;;;9.38;;
73747;SDS011;62056;52.130;5.428;2024-01-11T08:06:11;19.98;;;10.60;;
73747;SDS011;62056;52.130;5.428;2024-01-11T08:08:39;21.45;;;10.90;;
73747;SDS011;62056;52.130;5.428;2024-01-11T08:11:06;22.50;;;10.07;;
73747;SDS011;62056;52.130;5.428;2024-01-11T08:13:34;28.25;;;13.18;;
73747;SDS011;62056;52.130;5.428;2024-01-11T08:16:01;30.60;;;14.93;;
73747;SDS011;62056;52.130;5.428;2024-01-11T08:18:31;28.52;;;13.00;;
73747;SDS011;62056;52.130;5.428;2024-01-11T08:20:58;27.73;;;12.75;;
73747;SDS011;62056;52.130;5.428;2024-01-11T08:23:24;24.10;;;11.83;;
73747;SDS011;62056;52.130;5.428;2024-01-11T08:25:51;31.85;;;12.90;;
73747;SDS011;62056;52.130;5.428;2024-01-11T08:28:19;28.42;;;13.93;;
73747;SDS011;62056;52.130;5.428;2024-01-11T08:30:47;22.88;;;10.50;;
73747;SDS011;62056;52.130;5.428;2024-01-11T08:33:14;31.85;;;13.63;;
73747;SDS011;62056;52.130;5.428;2024-01-11T08:35:41;27.43;;;13.67;;
73747;SDS011;62056;52.130;5.428;2024-01-11T08:38:09;24.10;;;9.15;;
73747;SDS011;62056;52.130;5.428;2024-01-11T08:40:37;25.15;;;12.95;;
73747;SDS011;62056;52.130;5.428;2024-01-11T08:43:04;18.08;;;10.98;;
73747;SDS011;62056;52.130;5.428;2024-01-11T08:45:32;32.88;;;14.25;;
73747;SDS011;62056;52.130;5.428;2024-01-11T08:47:59;31.10;;;14.67;;
73747;SDS011;62056;52.130;5.428;2024-01-11T08:50:27;16.65;;;9.57;;
73747;SDS011;62056;52.130;5.428;2024-01-11T08:52:55;17.00;;;9.45;;
73747;SDS011;62056;52.130;5.428;2024-01-11T08:55:22;28.00;;;13.55;;
73747;SDS011;62056;52.130;5.428;2024-01-11T08:57:49;17.27;;;9.75;;
73747;SDS011;62056;52.130;5.428;2024-01-11T09:00:16;20.63;;;10.13;;
73747;SDS011;62056;52.130;5.428;2024-01-11T09:02:45;23.35;;;11.32;;
73747;SDS011;62056;52.130;5.428;2024-01-11T09:05:15;25.80;;;11.73;;
73747;SDS011;62056;52.130;5.428;2024-01-11T09:07:43;23.67;;;12.00;;
73747;SDS011;62056;52.130;5.428;2024-01-11T09:10:10;29.98;;;14.52;;
73747;SDS011;62056;52.130;5.428;2024-01-11T09:12:37;34.30;;;15.13;;
73747;SDS011;62056;52.130;5.428;2024-01-11T09:15:05;26.25;;;12.02;;
73747;SDS011;62056;52.130;5.428;2024-01-11T09:17:32;34.60;;;14.93;;
73747;SDS011;62056;52.130;5.428;2024-01-11T09:19:59;21.38;;;10.00;;
73747;SDS011;62056;52.130;5.428;2024-01-11T09:22:26;25.45;;;12.77;;
73747;SDS011;62056;52.130;5.428;2024-01-11T09:24:54;28.30;;;13.97;;
73747;SDS011;62056;52.130;5.428;2024-01-11T09:27:21;27.98;;;13.98;;
73747;SDS011;62056;52.130;5.428;2024-01-11T09:29:49;26.52;;;11.75;;
73747;SDS011;62056;52.130;5.428;2024-01-11T09:32:20;30.95;;;13.05;;
73747;SDS011;62056;52.130;5.428;2024-01-11T09:34:47;31.75;;;11.32;;
73747;SDS011;62056;52.130;5.428;2024-01-11T09:37:14;23.90;;;11.37;;
73747;SDS011;62056;52.130;5.428;2024-01-11T09:39:41;21.98;;;11.00;;
73747;SDS011;62056;52.130;5.428;2024-01-11T09:42:09;28.70;;;10.82;;
73747;SDS011;62056;52.130;5.428;2024-01-11T09:44:37;21.92;;;10.20;;
73747;SDS011;62056;52.130;5.428;2024-01-11T09:47:08;30.73;;;12.18;;
73747;SDS011;62056;52.130;5.428;2024-01-11T09:49:42;30.93;;;11.73;;
73747;SDS011;62056;52.130;5.428;2024-01-11T09:52:11;27.63;;;12.18;;
73747;SDS011;62056;52.130;5.428;2024-01-11T09:54:41;25.23;;;10.88;;
73747;SDS011;62056;52.130;5.428;2024-01-11T09:57:08;27.95;;;12.73;;
73747;SDS011;62056;52.130;5.428;2024-01-11T09:59:35;25.08;;;10.00;;
73747;SDS011;62056;52.130;5.428;2024-01-11T10:02:03;23.53;;;11.30;;
73747;SDS011;62056;52.130;5.428;2024-01-11T10:04:30;29.90;;;12.02;;
73747;SDS011;62056;52.130;5.428;2024-01-11T10:06:57;25.92;;;10.48;;
73747;SDS011;62056;52.130;5.428;2024-01-11T10:09:24;23.40;;;10.32;;
73747;SDS011;62056;52.130;5.428;2024-01-11T10:11:51;24.45;;;9.93;;
73747;SDS011;62056;52.130;5.428;2024-01-11T10:14:20;26.33;;;12.03;;
73747;SDS011;62056;52.130;5.428;2024-01-11T10:16:47;22.42;;;9.13;;
73747;SDS011;62056;52.130;5.428;2024-01-11T10:19:14;26.63;;;10.93;;
73747;SDS011;62056;52.130;5.428;2024-01-11T10:21:43;22.10;;;10.45;;
73747;SDS011;62056;52.130;5.428;2024-01-11T10:24:10;28.58;;;10.98;;
73747;SDS011;62056;52.130;5.428;2024-01-11T10:26:44;28.03;;;11.33;;
73747;SDS011;62056;52.130;5.428;2024-01-11T10:29:11;28.42;;;10.85;;
73747;SDS011;62056;52.130;5.428;2024-01-11T10:31:39;27.52;;;11.90;;
73747;SDS011;62056;52.130;5.428;2024-01-11T10:34:06;28.08;;;11.45;;
73747;SDS011;62056;52.130;5.428;2024-01-11T10:36:33;27.50;;;11.35;;
73747;SDS011;62056;52.130;5.428;2024-01-11T10:39:01;26.67;;;10.03;;
73747;SDS011;62056;52.130;5.428;2024-01-11T10:41:38;26.63;;;11.63;;
73747;SDS011;62056;52.130;5.428;2024-01-11T10:44:09;25.10;;;11.50;;
73747;SDS011;62056;52.130;5.428;2024-01-11T10:46:45;23.08;;;11.20;;
73747;SDS011;62056;52.130;5.428;2024-01-11T10:49:13;26.77;;;10.32;;
73747;SDS011;62056;52.130;5.428;2024-01-11T10:51:58;25.17;;;11.23;;
73747;SDS011;62056;52.130;5.428;2024-01-11T10:54:46;31.17;;;10.73;;
73747;SDS011;62056;52.130;5.428;2024-01-11T10:57:15;26.63;;;9.90;;
73747;SDS011;62056;52.130;5.428;2024-01-11T10:59:42;14.00;;;6.47;;
73747;SDS011;62056;52.130;5.428;2024-01-11T11:02:10;15.85;;;7.13;;
73747;SDS011;62056;52.130;5.428;2024-01-11T11:04:40;30.23;;;10.77;;
73747;SDS011;62056;52.130;5.428;2024-01-11T11:07:09;29.63;;;10.63;;
73747;SDS011;62056;52.130;5.428;2024-01-11T11:09:36;28.13;;;11.23;;
73747;SDS011;62056;52.130;5.428;2024-01-11T11:12:05;22.00;;;9.85;;
73747;SDS011;62056;52.130;5.428;2024-01-11T11:14:35;23.98;;;10.18;;
73747;SDS011;62056;52.130;5.428;2024-01-11T11:17:05;31.93;;;11.80;;
73747;SDS011;62056;52.130;5.428;2024-01-11T11:19:32;22.63;;;9.43;;
73747;SDS011;62056;52.130;5.428;2024-01-11T11:21:59;21.60;;;8.77;;
73747;SDS011;62056;52.130;5.428;2024-01-11T11:24:30;23.15;;;9.98;;
73747;SDS011;62056;52.130;5.428;2024-01-11T11:27:01;23.20;;;9.57;;
73747;SDS011;62056;52.130;5.428;2024-01-11T11:29:27;12.17;;;6.43;;
73747;SDS011;62056;52.130;5.428;2024-01-11T11:31:54;20.65;;;8.93;;
73747;SDS011;62056;52.130;5.428;2024-01-11T11:34:42;27.17;;;10.23;;
73747;SDS011;62056;52.130;5.428;2024-01-11T11:37:14;28.98;;;11.10;;
73747;SDS011;62056;52.130;5.428;2024-01-11T11:39:49;24.80;;;10.65;;
73747;SDS011;62056;52.130;5.428;2024-01-11T11:42:16;17.03;;;7.37;;
73747;SDS011;62056;52.130;5.428;2024-01-11T11:44:47;20.58;;;9.02;;
73747;SDS011;62056;52.130;5.428;2024-01-11T11:47:19;20.92;;;8.80;;
73747;SDS011;62056;52.130;5.428;2024-01-11T11:50:06;21.20;;;9.48;;
73747;SDS011;62056;52.130;5.428;2024-01-11T11:52:37;19.85;;;9.25;;
73747;SDS011;62056;52.130;5.428;2024-01-11T11:55:08;18.80;;;9.17;;
73747;SDS011;62056;52.130;5.428;2024-01-11T11:57:35;22.20;;;8.48;;
73747;SDS011;62056;52.130;5.428;2024-01-11T12:00:03;13.82;;;7.10;;
73747;SDS011;62056;52.130;5.428;2024-01-11T12:02:33;10.45;;;6.45;;
73747;SDS011;62056;52.130;5.428;2024-01-11T12:05:02;21.05;;;10.20;;
73747;SDS011;62056;52.130;5.428;2024-01-11T12:07:32;22.83;;;9.13;;
73747;SDS011;62056;52.130;5.428;2024-01-11T12:10:00;19.63;;;9.70;;
73747;SDS011;62056;52.130;5.428;2024-01-11T12:12:27;26.33;;;11.13;;
73747;SDS011;62056;52.130;5.428;2024-01-11T12:14:55;15.48;;;7.60;;
73747;SDS011;62056;52.130;5.428;2024-01-11T12:17:25;14.27;;;6.80;;
73747;SDS011;62056;52.130;5.428;2024-01-11T12:19:53;23.20;;;10.03;;
73747;SDS011;62056;52.130;5.428;2024-01-11T12:22:22;17.92;;;8.98;;
73747;SDS011;62056;52.130;5.428;2024-01-11T12:24:50;18.45;;;9.25;;
73747;SDS011;62056;52.130;5.428;2024-01-11T12:27:18;10.25;;;5.65;;
73747;SDS011;62056;52.130;5.428;2024-01-11T12:29:45;22.60;;;9.07;;
73747;SDS011;62056;52.130;5.428;2024-01-11T12:32:23;18.73;;;8.80;;
73747;SDS011;62056;52.130;5.428;2024-01-11T12:34:50;13.15;;;7.32;;
73747;SDS011;62056;52.130;5.428;2024-01-11T12:37:18;14.65;;;7.32;;
73747;SDS011;62056;52.130;5.428;2024-01-11T12:39:47;18.52;;;8.50;;
73747;SDS011;62056;52.130;5.428;2024-01-11T12:42:19;14.23;;;6.50;;
73747;SDS011;62056;52.130;5.428;2024-01-11T12:44:47;16.00;;;6.70;;
73747;SDS011;62056;52.130;5.428;2024-01-11T12:47:20;14.68;;;7.78;;
73747;SDS011;62056;52.130;5.428;2024-01-11T12:49:47;16.67;;;8.23;;
73747;SDS011;62056;52.130;5.428;2024-01-11T12:52:18;17.58;;;8.02;;
73747;SDS011;62056;52.130;5.428;2024-01-11T12:54:53;17.80;;;7.65;;
73747;SDS011;62056;52.130;5.428;2024-01-11T12:57:20;16.67;;;7.07;;
73747;SDS011;62056;52.130;5.428;2024-01-11T12:59:47;16.85;;;7.45;;
73747;SDS011;62056;52.130;5.428;2024-01-11T13:02:15;15.90;;;7.97;;
73747;SDS011;62056;52.130;5.428;2024-01-11T13:04:45;18.25;;;8.68;;
73747;SDS011;62056;52.130;5.428;2024-01-11T13:07:15;11.18;;;6.05;;
73747;SDS011;62056;52.130;5.428;2024-01-11T13:09:42;19.17;;;9.43;;
73747;SDS011;62056;52.130;5.428;2024-01-11T13:13:03;19.33;;;9.45;;
73747;SDS011;62056;52.130;5.428;2024-01-11T13:15:35;20.02;;;9.63;;
73747;SDS011;62056;52.130;5.428;2024-01-11T13:18:02;13.90;;;6.82;;
73747;SDS011;62056;52.130;5.428;2024-01-11T13:20:31;19.92;;;8.25;;
73747;SDS011;62056;52.130;5.428;2024-01-11T13:23:17;16.13;;;7.47;;
73747;SDS011;62056;52.130;5.428;2024-01-11T13:25:48;15.98;;;7.88;;
73747;SDS011;62056;52.130;5.428;2024-01-11T13:28:18;9.15;;;5.85;;
73747;SDS011;62056;52.130;5.428;2024-01-11T13:30:47;17.35;;;9.40;;
73747;SDS011;62056;52.130;5.428;2024-01-11T13:33:15;20.30;;;8.98;;
73747;SDS011;62056;52.130;5.428;2024-01-11T13:35:44;17.00;;;8.73;;
73747;SDS011;62056;52.130;5.428;2024-01-11T13:38:12;14.30;;;6.25;;
73747;SDS011;62056;52.130;5.428;2024-01-11T13:40:39;13.52;;;5.97;;
73747;SDS011;62056;52.130;5.428;2024-01-11T13:43:07;15.98;;;8.57;;
73747;SDS011;62056;52.130;5.428;2024-01-11T13:45:34;13.88;;;6.13;;
73747;SDS011;62056;52.130;5.428;2024-01-11T13:48:05;19.57;;;8.57;;
73747;SDS011;62056;52.130;5.428;2024-01-11T13:50:33;16.95;;;7.85;;
73747;SDS011;62056;52.130;5.428;2024-01-11T13:53:00;17.02;;;8.38;;
73747;SDS011;62056;52.130;5.428;2024-01-11T13:55:28;17.30;;;9.07;;
73747;SDS011;62056;52.130;5.428;2024-01-11T13:58:05;12.77;;;6.18;;
73747;SDS011;62056;52.130;5.428;2024-01-11T14:00:32;21.40;;;8.63;;
73747;SDS011;62056;52.130;5.428;2024-01-11T14:02:59;10.60;;;6.00;;
73747;SDS011;62056;52.130;5.428;2024-01-11T14:05:26;12.02;;;5.65;;
73747;SDS011;62056;52.130;5.428;2024-01-11T14:07:53;14.57;;;7.18;;
73747;SDS011;62056;52.130;5.428;2024-01-11T14:10:25;14.15;;;6.35;;
73747;SDS011;62056;52.130;5.428;2024-01-11T14:12:53;16.87;;;7.80;;
73747;SDS011;62056;52.130;5.428;2024-01-11T14:15:20;17.98;;;8.65;;
73747;SDS011;62056;52.130;5.428;2024-01-11T14:17:47;12.02;;;6.22;;
73747;SDS011;62056;52.130;5.428;2024-01-11T14:20:15;11.77;;;6.43;;
73747;SDS011;62056;52.130;5.428;2024-01-11T14:22:43;12.60;;;7.32;;
73747;SDS011;62056;52.130;5.428;2024-01-11T14:25:15;10.87;;;6.13;;
73747;SDS011;62056;52.130;5.428;2024-01-11T14:27:42;21.55;;;8.55;;
73747;SDS011;62056;52.130;5.428;2024-01-11T14:30:11;17.98;;;8.20;;
73747;SDS011;62056;52.130;5.428;2024-01-11T14:32:38;13.50;;;6.85;;
73747;SDS011;62056;52.130;5.428;2024-01-11T14:35:07;18.05;;;7.57;;
73747;SDS011;62056;52.130;5.428;2024-01-11T14:37:35;17.77;;;8.17;;
73747;SDS011;62056;52.130;5.428;2024-01-11T14:40:05;14.80;;;7.22;;